Bright Ocean — HOGQ — position and weather

sailwx.info

Track history (hours):
 
Tides and Currents Weather Stations Pressure Air Temp Water Temp Dewpoint Dewpoint Depression Visibility Wind Speed Wind Dir Waves Ship Positions

Bright Ocean

Last reported at 2014-Jul-28 11:34 UTC. Time now 2014-Jul-28 12:19 UTC.
Position N 36°02' E 141°09'.

Length 178 m; draft 8.6 m.

Type: Cargo ship. MMSI: 373816000.

Date/timePositionNaut miles runAvg speedWind from/ knotsBaromVisibWave heightAir tempDewpointWater temp
2014-Jul-28 11:34N 36°02' E 141°09'0 0.3
2014-Jul-28 10:33N 36°02' E 141°10'0 0.5
2014-Jul-28 09:33N 36°02' E 141°10'1 0.5
2014-Jul-28 08:33N 36°03' E 141°11'1 0.5
2014-Jul-28 07:33N 36°03' E 141°11'1 0.5
2014-Jul-28 05:27N 36°04' E 141°11'1 0.7
2014-Jul-28 04:33N 36°05' E 141°10'12 0.3
2014-Jul-26 12:22N 35°59' E 141°23'3 1.6
2014-Jul-26 10:22N 35°59' E 141°19'11 6.0
2014-Jul-26 08:32N 35°58' E 141°05'9 7.0
2014-Jul-26 07:12N 35°58' E 140°54'0 0.5
2014-Jul-26 06:30N 35°58' E 140°54'1 0.3
2014-Jul-26 04:12N 35°58' E 140°55'0 0.2
2014-Jul-26 03:12N 35°58' E 140°55'0 0.3
2014-Jul-26 02:30N 35°58' E 140°55'0 0.3
2014-Jul-26 01:30N 35°58' E 140°54'0 0.2
2014-Jul-26 00:27N 35°59' E 140°54'0 0.1
2014-Jul-25 23:18N 35°59' E 140°54'0 0.3
2014-Jul-25 21:33N 35°59' E 140°55'0 0.3
2014-Jul-25 20:21N 35°59' E 140°55'0 0.4
2014-Jul-25 19:33N 35°59' E 140°56'0 0.3
2014-Jul-25 18:30N 35°59' E 140°56'0 0.4
2014-Jul-25 17:21N 35°60' E 140°56'0 0.5
2014-Jul-25 16:33N 36°00' E 140°56'1 0.5
2014-Jul-25 15:18N 36°01' E 140°55'1 0.7
2014-Jul-25 14:30N 36°01' E 140°55'1 0.5
2014-Jul-25 12:24N 36°02' E 140°54'0 0.2
2014-Jul-25 11:12N 36°02' E 140°53'0 0.3
2014-Jul-25 10:27N 36°02' E 140°53'0 0.1
2014-Jul-25 09:21N 36°02' E 140°53'0 0.2
2014-Jul-25 07:22N 36°02' E 140°54'0 0.6
2014-Jul-25 06:33N 36°02' E 140°54'4 3.6
2014-Jul-25 05:34N 35°59' E 140°52'1313.1
2014-Jul-25 04:33N 35°47' E 141°00'1312.8
2014-Jul-25 03:33N 35°35' E 140°56'1413.7
2014-Jul-25 02:33N 35°22' E 140°50'1414.3
2014-Jul-25 01:33N 35°10' E 140°39'1515.1
2014-Jul-25 00:33N 35°01' E 140°25'1615.9
2014-Jul-24 23:34N 34°50' E 140°11'1716.9
2014-Jul-24 22:33N 34°37' E 139°58'1616.2
2014-Jul-24 21:33N 34°26' E 139°44'1716.6
2014-Jul-24 20:33N 34°17' E 139°27'  
Track history (hours):
 
Tides and Currents Weather Stations Pressure Air Temp Water Temp Dewpoint Dewpoint Depression Visibility Wind Speed Wind Dir Waves Ship Positions

Bright Ocean

Last reported at 2014-Jul-28 11:34 UTC. Time now 2014-Jul-28 12:19 UTC.
Position N 36°02' E 141°09'.

Length 178 m; draft 8.6 m.

Type: Cargo ship. MMSI: 373816000.

Date/timePositionNaut miles runAvg speedWind from/ knotsBaromVisibWave heightAir tempDewpointWater temp
2014-Jul-28 11:34N 36°02' E 141°09'0 0.3
2014-Jul-28 10:33N 36°02' E 141°10'0 0.5
2014-Jul-28 09:33N 36°02' E 141°10'1 0.5
2014-Jul-28 08:33N 36°03' E 141°11'1 0.5
2014-Jul-28 07:33N 36°03' E 141°11'1 0.5
2014-Jul-28 05:27N 36°04' E 141°11'1 0.7
2014-Jul-28 04:33N 36°05' E 141°10'12 0.3
2014-Jul-26 12:22N 35°59' E 141°23'3 1.6
2014-Jul-26 10:22N 35°59' E 141°19'11 6.0
2014-Jul-26 08:32N 35°58' E 141°05'9 7.0
2014-Jul-26 07:12N 35°58' E 140°54'0 0.5
2014-Jul-26 06:30N 35°58' E 140°54'1 0.3
2014-Jul-26 04:12N 35°58' E 140°55'0 0.2
2014-Jul-26 03:12N 35°58' E 140°55'0 0.3
2014-Jul-26 02:30N 35°58' E 140°55'0 0.3
2014-Jul-26 01:30N 35°58' E 140°54'0 0.2
2014-Jul-26 00:27N 35°59' E 140°54'0 0.1
2014-Jul-25 23:18N 35°59' E 140°54'0 0.3
2014-Jul-25 21:33N 35°59' E 140°55'0 0.3
2014-Jul-25 20:21N 35°59' E 140°55'0 0.4
2014-Jul-25 19:33N 35°59' E 140°56'0 0.3
2014-Jul-25 18:30N 35°59' E 140°56'0 0.4
2014-Jul-25 17:21N 35°60' E 140°56'0 0.5
2014-Jul-25 16:33N 36°00' E 140°56'1 0.5
2014-Jul-25 15:18N 36°01' E 140°55'1 0.7
2014-Jul-25 14:30N 36°01' E 140°55'1 0.5
2014-Jul-25 12:24N 36°02' E 140°54'0 0.2
2014-Jul-25 11:12N 36°02' E 140°53'0 0.3
2014-Jul-25 10:27N 36°02' E 140°53'0 0.1
2014-Jul-25 09:21N 36°02' E 140°53'0 0.2
2014-Jul-25 07:22N 36°02' E 140°54'0 0.6
2014-Jul-25 06:33N 36°02' E 140°54'4 3.6
2014-Jul-25 05:34N 35°59' E 140°52'1313.1
2014-Jul-25 04:33N 35°47' E 141°00'1312.8
2014-Jul-25 03:33N 35°35' E 140°56'1413.7
2014-Jul-25 02:33N 35°22' E 140°50'1414.3
2014-Jul-25 01:33N 35°10' E 140°39'1515.1
2014-Jul-25 00:33N 35°01' E 140°25'1615.9
2014-Jul-24 23:34N 34°50' E 140°11'1716.9
2014-Jul-24 22:33N 34°37' E 139°58'1616.2
2014-Jul-24 21:33N 34°26' E 139°44'1716.6
2014-Jul-24 20:33N 34°17' E 139°27'  

Dump ship's entire track history